sensor_id;sensor_type;location;lat;lon;timestamp;temperature;humidity
48860;DHT22;34679;51.436;-2.518;2022-12-29T00:01:58;9.10;99.90
48860;DHT22;34679;51.436;-2.518;2022-12-29T00:04:23;9.10;99.90
48860;DHT22;34679;51.436;-2.518;2022-12-29T00:06:49;9.00;99.90
48860;DHT22;34679;51.436;-2.518;2022-12-29T00:09:16;9.00;99.90
48860;DHT22;34679;51.436;-2.518;2022-12-29T00:11:42;8.90;99.90
48860;DHT22;34679;51.436;-2.518;2022-12-29T00:14:09;9.00;99.90
48860;DHT22;34679;51.436;-2.518;2022-12-29T00:16:54;9.00;99.90
48860;DHT22;34679;51.436;-2.518;2022-12-29T00:19:20;8.90;99.90
48860;DHT22;34679;51.436;-2.518;2022-12-29T00:22:04;8.90;99.90
48860;DHT22;34679;51.436;-2.518;2022-12-29T00:24:49;8.90;99.90
48860;DHT22;34679;51.436;-2.518;2022-12-29T00:27:20;9.00;99.90
48860;DHT22;34679;51.436;-2.518;2022-12-29T00:30:10;9.00;99.90
48860;DHT22;34679;51.436;-2.518;2022-12-29T00:32:54;9.00;99.90
48860;DHT22;34679;51.436;-2.518;2022-12-29T00:35:52;9.10;99.90
48860;DHT22;34679;51.436;-2.518;2022-12-29T00:38:19;9.10;99.90
48860;DHT22;34679;51.436;-2.518;2022-12-29T00:41:04;9.20;99.90
48860;DHT22;34679;51.436;-2.518;2022-12-29T00:43:48;9.30;99.90
48860;DHT22;34679;51.436;-2.518;2022-12-29T00:46:33;9.30;99.90
48860;DHT22;34679;51.436;-2.518;2022-12-29T00:48:59;9.30;99.90
48860;DHT22;34679;51.436;-2.518;2022-12-29T00:51:43;9.30;99.90
48860;DHT22;34679;51.436;-2.518;2022-12-29T00:54:09;9.40;99.90
48860;DHT22;34679;51.436;-2.518;2022-12-29T00:56:35;9.40;99.90
48860;DHT22;34679;51.436;-2.518;2022-12-29T00:59:01;9.50;99.90
48860;DHT22;34679;51.436;-2.518;2022-12-29T01:01:27;9.50;99.90
48860;DHT22;34679;51.436;-2.518;2022-12-29T01:03:53;9.50;99.90
48860;DHT22;34679;51.436;-2.518;2022-12-29T01:06:18;9.50;99.90
48860;DHT22;34679;51.436;-2.518;2022-12-29T01:08:44;9.40;99.90
48860;DHT22;34679;51.436;-2.518;2022-12-29T01:11:12;9.30;99.90
48860;DHT22;34679;51.436;-2.518;2022-12-29T01:13:38;9.30;99.90
48860;DHT22;34679;51.436;-2.518;2022-12-29T01:16:06;9.30;99.90
48860;DHT22;34679;51.436;-2.518;2022-12-29T01:18:32;9.20;99.90
48860;DHT22;34679;51.436;-2.518;2022-12-29T01:23:25;9.20;99.90
48860;DHT22;34679;51.436;-2.518;2022-12-29T01:25:51;9.20;99.90
48860;DHT22;34679;51.436;-2.518;2022-12-29T01:28:16;9.20;99.90
48860;DHT22;34679;51.436;-2.518;2022-12-29T01:30:42;9.30;99.90
48860;DHT22;34679;51.436;-2.518;2022-12-29T01:33:08;9.30;99.90
48860;DHT22;34679;51.436;-2.518;2022-12-29T01:35:33;9.30;99.90
48860;DHT22;34679;51.436;-2.518;2022-12-29T01:37:59;9.40;99.90
48860;DHT22;34679;51.436;-2.518;2022-12-29T01:40:25;9.40;99.90
48860;DHT22;34679;51.436;-2.518;2022-12-29T01:42:50;9.40;99.90
48860;DHT22;34679;51.436;-2.518;2022-12-29T01:45:17;9.40;99.90
48860;DHT22;34679;51.436;-2.518;2022-12-29T01:47:57;9.40;99.90
48860;DHT22;34679;51.436;-2.518;2022-12-29T01:50:28;9.40;99.90
48860;DHT22;34679;51.436;-2.518;2022-12-29T01:55:34;9.40;99.90
48860;DHT22;34679;51.436;-2.518;2022-12-29T01:58:03;9.50;99.90
48860;DHT22;34679;51.436;-2.518;2022-12-29T02:00:30;9.60;99.90
48860;DHT22;34679;51.436;-2.518;2022-12-29T02:02:56;9.70;99.90
48860;DHT22;34679;51.436;-2.518;2022-12-29T02:05:44;9.70;99.90
48860;DHT22;34679;51.436;-2.518;2022-12-29T02:08:11;9.80;99.90
48860;DHT22;34679;51.436;-2.518;2022-12-29T02:10:39;9.80;99.90
48860;DHT22;34679;51.436;-2.518;2022-12-29T02:13:06;9.80;99.90
48860;DHT22;34679;51.436;-2.518;2022-12-29T02:18:29;9.80;99.90
48860;DHT22;34679;51.436;-2.518;2022-12-29T02:37:31;9.90;99.90
48860;DHT22;34679;51.436;-2.518;2022-12-29T02:43:04;9.70;99.90
48860;DHT22;34679;51.436;-2.518;2022-12-29T02:45:58;9.60;99.90
48860;DHT22;34679;51.436;-2.518;2022-12-29T02:48:36;9.60;99.90
48860;DHT22;34679;51.436;-2.518;2022-12-29T02:51:08;9.50;99.90
48860;DHT22;34679;51.436;-2.518;2022-12-29T02:53:36;9.50;99.90
48860;DHT22;34679;51.436;-2.518;2022-12-29T02:56:21;9.40;99.90
48860;DHT22;34679;51.436;-2.518;2022-12-29T02:58:47;9.30;99.90
48860;DHT22;34679;51.436;-2.518;2022-12-29T03:05:53;9.20;99.90
48860;DHT22;34679;51.436;-2.518;2022-12-29T03:10:25;9.00;99.90
48860;DHT22;34679;51.436;-2.518;2022-12-29T03:13:13;9.10;99.90
48860;DHT22;34679;51.436;-2.518;2022-12-29T03:16:07;9.00;99.90
48860;DHT22;34679;51.436;-2.518;2022-12-29T03:24:42;8.90;99.90
48860;DHT22;34679;51.436;-2.518;2022-12-29T03:27:12;8.90;99.90
48860;DHT22;34679;51.436;-2.518;2022-12-29T03:29:44;8.80;99.90
48860;DHT22;34679;51.436;-2.518;2022-12-29T03:32:12;8.80;99.90
48860;DHT22;34679;51.436;-2.518;2022-12-29T03:34:39;8.80;99.90
48860;DHT22;34679;51.436;-2.518;2022-12-29T03:37:12;8.70;99.90
48860;DHT22;34679;51.436;-2.518;2022-12-29T03:39:38;8.60;99.90
48860;DHT22;34679;51.436;-2.518;2022-12-29T03:42:09;8.70;99.90
48860;DHT22;34679;51.436;-2.518;2022-12-29T03:44:38;8.70;99.90
48860;DHT22;34679;51.436;-2.518;2022-12-29T03:47:06;8.70;99.90
48860;DHT22;34679;51.436;-2.518;2022-12-29T03:49:33;8.80;99.90
48860;DHT22;34679;51.436;-2.518;2022-12-29T03:51:59;8.70;99.90
48860;DHT22;34679;51.436;-2.518;2022-12-29T03:54:24;8.70;99.90
48860;DHT22;34679;51.436;-2.518;2022-12-29T03:56:50;8.70;99.90
48860;DHT22;34679;51.436;-2.518;2022-12-29T03:59:16;8.60;99.90
48860;DHT22;34679;51.436;-2.518;2022-12-29T04:01:42;8.60;99.90
48860;DHT22;34679;51.436;-2.518;2022-12-29T04:04:07;8.60;99.90
48860;DHT22;34679;51.436;-2.518;2022-12-29T04:06:33;8.60;99.90
48860;DHT22;34679;51.436;-2.518;2022-12-29T04:08:59;8.50;99.90
48860;DHT22;34679;51.436;-2.518;2022-12-29T04:11:25;8.50;99.90
48860;DHT22;34679;51.436;-2.518;2022-12-29T04:13:50;8.50;99.90
48860;DHT22;34679;51.436;-2.518;2022-12-29T04:16:16;8.50;99.90
48860;DHT22;34679;51.436;-2.518;2022-12-29T04:18:42;8.60;99.90
48860;DHT22;34679;51.436;-2.518;2022-12-29T04:21:07;8.50;99.90
48860;DHT22;34679;51.436;-2.518;2022-12-29T04:23:35;8.50;99.90
48860;DHT22;34679;51.436;-2.518;2022-12-29T04:26:02;8.50;99.90
48860;DHT22;34679;51.436;-2.518;2022-12-29T04:28:28;8.50;99.90
48860;DHT22;34679;51.436;-2.518;2022-12-29T04:30:54;8.50;99.90
48860;DHT22;34679;51.436;-2.518;2022-12-29T04:33:20;8.40;99.90
48860;DHT22;34679;51.436;-2.518;2022-12-29T04:35:46;8.40;99.90
48860;DHT22;34679;51.436;-2.518;2022-12-29T04:38:12;8.30;99.90
48860;DHT22;34679;51.436;-2.518;2022-12-29T04:40:39;8.40;99.90
48860;DHT22;34679;51.436;-2.518;2022-12-29T04:43:05;8.30;99.90
48860;DHT22;34679;51.436;-2.518;2022-12-29T04:45:31;8.30;99.90
48860;DHT22;34679;51.436;-2.518;2022-12-29T04:47:57;8.20;99.90
48860;DHT22;34679;51.436;-2.518;2022-12-29T04:50:22;8.20;99.90
48860;DHT22;34679;51.436;-2.518;2022-12-29T04:52:48;8.20;99.90
48860;DHT22;34679;51.436;-2.518;2022-12-29T04:55:14;8.10;99.90
48860;DHT22;34679;51.436;-2.518;2022-12-29T04:57:40;8.10;99.90
48860;DHT22;34679;51.436;-2.518;2022-12-29T05:00:06;8.10;99.90
48860;DHT22;34679;51.436;-2.518;2022-12-29T05:02:34;8.20;99.90
48860;DHT22;34679;51.436;-2.518;2022-12-29T05:05:00;8.20;99.90
48860;DHT22;34679;51.436;-2.518;2022-12-29T05:07:26;8.20;99.90
48860;DHT22;34679;51.436;-2.518;2022-12-29T05:09:52;8.30;99.90
48860;DHT22;34679;51.436;-2.518;2022-12-29T05:12:17;8.30;99.90
48860;DHT22;34679;51.436;-2.518;2022-12-29T05:14:43;8.30;99.90
48860;DHT22;34679;51.436;-2.518;2022-12-29T05:17:09;8.30;99.90
48860;DHT22;34679;51.436;-2.518;2022-12-29T05:19:34;8.30;99.90
48860;DHT22;34679;51.436;-2.518;2022-12-29T05:22:00;8.30;99.90
48860;DHT22;34679;51.436;-2.518;2022-12-29T05:24:26;8.30;99.90
48860;DHT22;34679;51.436;-2.518;2022-12-29T05:26:51;8.30;99.90
48860;DHT22;34679;51.436;-2.518;2022-12-29T05:29:17;8.20;99.90
48860;DHT22;34679;51.436;-2.518;2022-12-29T05:31:43;8.20;99.90
48860;DHT22;34679;51.436;-2.518;2022-12-29T05:34:11;8.20;99.90
48860;DHT22;34679;51.436;-2.518;2022-12-29T05:36:37;8.10;99.90
48860;DHT22;34679;51.436;-2.518;2022-12-29T05:39:03;8.10;99.90
48860;DHT22;34679;51.436;-2.518;2022-12-29T05:41:28;8.10;99.90
48860;DHT22;34679;51.436;-2.518;2022-12-29T05:43:54;8.00;99.90
48860;DHT22;34679;51.436;-2.518;2022-12-29T05:46:20;8.00;99.90
48860;DHT22;34679;51.436;-2.518;2022-12-29T05:48:46;8.00;99.90
48860;DHT22;34679;51.436;-2.518;2022-12-29T05:51:11;8.00;99.90
48860;DHT22;34679;51.436;-2.518;2022-12-29T05:53:37;8.00;99.90
48860;DHT22;34679;51.436;-2.518;2022-12-29T05:56:03;7.90;99.90
48860;DHT22;34679;51.436;-2.518;2022-12-29T05:58:28;8.00;99.90
48860;DHT22;34679;51.436;-2.518;2022-12-29T06:00:54;8.00;99.90
48860;DHT22;34679;51.436;-2.518;2022-12-29T06:03:20;8.00;99.90
48860;DHT22;34679;51.436;-2.518;2022-12-29T06:05:46;8.10;99.90
48860;DHT22;34679;51.436;-2.518;2022-12-29T06:08:12;8.00;99.90
48860;DHT22;34679;51.436;-2.518;2022-12-29T06:10:38;8.10;99.90
48860;DHT22;34679;51.436;-2.518;2022-12-29T06:13:04;8.00;99.90
48860;DHT22;34679;51.436;-2.518;2022-12-29T06:15:31;8.00;99.90
48860;DHT22;34679;51.436;-2.518;2022-12-29T06:17:57;8.00;99.90
48860;DHT22;34679;51.436;-2.518;2022-12-29T06:20:23;8.00;99.90
48860;DHT22;34679;51.436;-2.518;2022-12-29T06:22:49;7.90;99.90
48860;DHT22;34679;51.436;-2.518;2022-12-29T06:25:15;7.90;99.90
48860;DHT22;34679;51.436;-2.518;2022-12-29T06:27:41;8.00;99.90
48860;DHT22;34679;51.436;-2.518;2022-12-29T06:30:08;8.00;99.90
48860;DHT22;34679;51.436;-2.518;2022-12-29T06:32:34;8.00;99.90
48860;DHT22;34679;51.436;-2.518;2022-12-29T06:35:01;8.00;99.90
48860;DHT22;34679;51.436;-2.518;2022-12-29T06:37:27;8.10;99.90
48860;DHT22;34679;51.436;-2.518;2022-12-29T06:39:53;8.10;99.90
48860;DHT22;34679;51.436;-2.518;2022-12-29T06:42:18;8.10;99.90
48860;DHT22;34679;51.436;-2.518;2022-12-29T06:44:44;8.20;99.90
48860;DHT22;34679;51.436;-2.518;2022-12-29T06:47:10;8.30;99.90
48860;DHT22;34679;51.436;-2.518;2022-12-29T06:49:36;8.30;99.90
48860;DHT22;34679;51.436;-2.518;2022-12-29T06:52:02;8.30;99.90
48860;DHT22;34679;51.436;-2.518;2022-12-29T06:54:30;8.30;99.90
48860;DHT22;34679;51.436;-2.518;2022-12-29T06:56:56;8.30;99.90
48860;DHT22;34679;51.436;-2.518;2022-12-29T06:59:22;8.30;99.90
48860;DHT22;34679;51.436;-2.518;2022-12-29T07:01:48;8.40;99.90
48860;DHT22;34679;51.436;-2.518;2022-12-29T07:04:14;8.40;99.90
48860;DHT22;34679;51.436;-2.518;2022-12-29T07:06:40;8.30;99.90
48860;DHT22;34679;51.436;-2.518;2022-12-29T07:09:07;8.30;99.90
48860;DHT22;34679;51.436;-2.518;2022-12-29T07:11:33;8.30;99.90
48860;DHT22;34679;51.436;-2.518;2022-12-29T07:13:59;8.10;99.90
48860;DHT22;34679;51.436;-2.518;2022-12-29T07:16:25;8.10;99.90
48860;DHT22;34679;51.436;-2.518;2022-12-29T07:18:50;8.10;99.90
48860;DHT22;34679;51.436;-2.518;2022-12-29T07:21:17;8.00;99.90
48860;DHT22;34679;51.436;-2.518;2022-12-29T07:23:43;8.00;99.90
48860;DHT22;34679;51.436;-2.518;2022-12-29T07:26:13;8.00;99.90
48860;DHT22;34679;51.436;-2.518;2022-12-29T07:28:39;7.90;99.90
48860;DHT22;34679;51.436;-2.518;2022-12-29T07:31:05;7.90;99.90
48860;DHT22;34679;51.436;-2.518;2022-12-29T07:33:32;7.80;99.90
48860;DHT22;34679;51.436;-2.518;2022-12-29T07:35:58;7.80;99.90
48860;DHT22;34679;51.436;-2.518;2022-12-29T07:38:24;7.90;99.90
48860;DHT22;34679;51.436;-2.518;2022-12-29T07:40:50;7.90;99.90
48860;DHT22;34679;51.436;-2.518;2022-12-29T07:43:16;7.80;99.90
48860;DHT22;34679;51.436;-2.518;2022-12-29T07:45:41;7.80;99.90
48860;DHT22;34679;51.436;-2.518;2022-12-29T07:48:07;7.80;99.90
48860;DHT22;34679;51.436;-2.518;2022-12-29T07:50:34;7.70;99.90
48860;DHT22;34679;51.436;-2.518;2022-12-29T07:53:00;7.70;99.90
48860;DHT22;34679;51.436;-2.518;2022-12-29T07:55:26;7.80;99.90
48860;DHT22;34679;51.436;-2.518;2022-12-29T07:57:55;7.70;99.90
48860;DHT22;34679;51.436;-2.518;2022-12-29T08:00:22;7.80;99.90
48860;DHT22;34679;51.436;-2.518;2022-12-29T08:02:48;7.80;99.90
48860;DHT22;34679;51.436;-2.518;2022-12-29T08:05:13;7.70;99.90
48860;DHT22;34679;51.436;-2.518;2022-12-29T08:07:43;7.70;99.90
48860;DHT22;34679;51.436;-2.518;2022-12-29T08:10:10;7.70;99.90
48860;DHT22;34679;51.436;-2.518;2022-12-29T08:12:38;7.80;99.90
48860;DHT22;34679;51.436;-2.518;2022-12-29T08:15:04;7.80;99.90
48860;DHT22;34679;51.436;-2.518;2022-12-29T08:17:30;7.80;99.90
48860;DHT22;34679;51.436;-2.518;2022-12-29T08:19:56;7.70;99.90
48860;DHT22;34679;51.436;-2.518;2022-12-29T08:22:22;7.80;99.90
48860;DHT22;34679;51.436;-2.518;2022-12-29T08:24:48;7.80;99.90
48860;DHT22;34679;51.436;-2.518;2022-12-29T08:27:14;7.80;99.90
48860;DHT22;34679;51.436;-2.518;2022-12-29T08:29:40;7.80;99.90
48860;DHT22;34679;51.436;-2.518;2022-12-29T08:32:05;7.70;99.90
48860;DHT22;34679;51.436;-2.518;2022-12-29T08:34:32;7.70;99.90
48860;DHT22;34679;51.436;-2.518;2022-12-29T08:36:58;7.60;99.90
48860;DHT22;34679;51.436;-2.518;2022-12-29T08:39:23;7.60;99.90
48860;DHT22;34679;51.436;-2.518;2022-12-29T08:41:50;7.50;99.90
48860;DHT22;34679;51.436;-2.518;2022-12-29T08:44:16;7.50;99.90
48860;DHT22;34679;51.436;-2.518;2022-12-29T08:46:42;7.40;99.90
48860;DHT22;34679;51.436;-2.518;2022-12-29T08:49:08;7.40;99.90
48860;DHT22;34679;51.436;-2.518;2022-12-29T08:51:34;7.40;99.90
48860;DHT22;34679;51.436;-2.518;2022-12-29T08:53:59;7.50;99.90
48860;DHT22;34679;51.436;-2.518;2022-12-29T08:56:25;7.50;99.90
48860;DHT22;34679;51.436;-2.518;2022-12-29T08:58:52;7.50;99.90
48860;DHT22;34679;51.436;-2.518;2022-12-29T09:01:19;7.50;99.90
48860;DHT22;34679;51.436;-2.518;2022-12-29T09:03:45;7.50;99.90
48860;DHT22;34679;51.436;-2.518;2022-12-29T09:06:11;7.50;99.90
48860;DHT22;34679;51.436;-2.518;2022-12-29T09:08:36;7.60;99.90
48860;DHT22;34679;51.436;-2.518;2022-12-29T09:11:10;7.50;99.90
48860;DHT22;34679;51.436;-2.518;2022-12-29T09:13:37;7.60;99.90
48860;DHT22;34679;51.436;-2.518;2022-12-29T09:16:03;7.60;99.90
48860;DHT22;34679;51.436;-2.518;2022-12-29T09:18:29;7.60;99.90
48860;DHT22;34679;51.436;-2.518;2022-12-29T09:20:59;7.70;99.90
48860;DHT22;34679;51.436;-2.518;2022-12-29T09:23:25;7.60;99.90
48860;DHT22;34679;51.436;-2.518;2022-12-29T09:25:51;7.60;99.90
48860;DHT22;34679;51.436;-2.518;2022-12-29T09:28:17;7.60;99.90
48860;DHT22;34679;51.436;-2.518;2022-12-29T09:30:42;7.60;99.90
48860;DHT22;34679;51.436;-2.518;2022-12-29T09:33:08;7.50;99.90
48860;DHT22;34679;51.436;-2.518;2022-12-29T09:35:36;7.40;99.90
48860;DHT22;34679;51.436;-2.518;2022-12-29T09:38:02;7.40;99.90
48860;DHT22;34679;51.436;-2.518;2022-12-29T09:40:32;7.40;99.90
48860;DHT22;34679;51.436;-2.518;2022-12-29T09:45:45;7.40;99.90
48860;DHT22;34679;51.436;-2.518;2022-12-29T09:48:25;7.40;99.90
48860;DHT22;34679;51.436;-2.518;2022-12-29T09:50:59;7.40;99.90
48860;DHT22;34679;51.436;-2.518;2022-12-29T09:53:52;7.40;99.90
48860;DHT22;34679;51.436;-2.518;2022-12-29T09:56:18;7.40;99.90
48860;DHT22;34679;51.436;-2.518;2022-12-29T10:01:44;7.40;99.90
48860;DHT22;34679;51.436;-2.518;2022-12-29T10:04:11;7.50;99.90
48860;DHT22;34679;51.436;-2.518;2022-12-29T10:15:08;7.50;99.90
48860;DHT22;34679;51.436;-2.518;2022-12-29T10:25:27;7.70;99.90
48860;DHT22;34679;51.436;-2.518;2022-12-29T10:27:55;7.80;99.90
48860;DHT22;34679;51.436;-2.518;2022-12-29T10:30:22;7.90;99.90
48860;DHT22;34679;51.436;-2.518;2022-12-29T10:32:58;8.10;99.90
48860;DHT22;34679;51.436;-2.518;2022-12-29T10:35:32;8.10;99.90
48860;DHT22;34679;51.436;-2.518;2022-12-29T10:43:50;8.00;99.90
48860;DHT22;34679;51.436;-2.518;2022-12-29T10:46:28;7.90;99.90
48860;DHT22;34679;51.436;-2.518;2022-12-29T10:48:55;7.90;99.90
48860;DHT22;34679;51.436;-2.518;2022-12-29T10:51:34;7.90;99.90
48860;DHT22;34679;51.436;-2.518;2022-12-29T10:54:18;8.10;99.90
48860;DHT22;34679;51.436;-2.518;2022-12-29T10:56:59;8.10;99.90
48860;DHT22;34679;51.436;-2.518;2022-12-29T10:59:29;8.20;99.90
48860;DHT22;34679;51.436;-2.518;2022-12-29T11:05:03;8.10;99.90
48860;DHT22;34679;51.436;-2.518;2022-12-29T11:07:32;8.00;99.90
48860;DHT22;34679;51.436;-2.518;2022-12-29T11:10:38;8.00;99.90
48860;DHT22;34679;51.436;-2.518;2022-12-29T11:13:19;7.90;99.90
48860;DHT22;34679;51.436;-2.518;2022-12-29T11:15:50;8.00;99.90
48860;DHT22;34679;51.436;-2.518;2022-12-29T11:18:35;8.00;99.90
48860;DHT22;34679;51.436;-2.518;2022-12-29T11:21:05;8.00;99.90
48860;DHT22;34679;51.436;-2.518;2022-12-29T11:23:35;8.00;99.90
48860;DHT22;34679;51.436;-2.518;2022-12-29T11:28:41;8.10;99.90
48860;DHT22;34679;51.436;-2.518;2022-12-29T11:31:08;8.20;99.90
48860;DHT22;34679;51.436;-2.518;2022-12-29T11:33:35;8.20;99.90
48860;DHT22;34679;51.436;-2.518;2022-12-29T11:36:05;8.30;99.90
48860;DHT22;34679;51.436;-2.518;2022-12-29T11:38:52;8.40;99.90
48860;DHT22;34679;51.436;-2.518;2022-12-29T11:41:27;8.50;99.90
48860;DHT22;34679;51.436;-2.518;2022-12-29T11:43:55;8.60;99.90
48860;DHT22;34679;51.436;-2.518;2022-12-29T11:46:28;8.60;99.90
48860;DHT22;34679;51.436;-2.518;2022-12-29T11:48:56;8.70;99.90
48860;DHT22;34679;51.436;-2.518;2022-12-29T11:51:45;8.80;99.90
48860;DHT22;34679;51.436;-2.518;2022-12-29T11:54:27;8.90;99.90
48860;DHT22;34679;51.436;-2.518;2022-12-29T11:56:55;9.10;99.90
48860;DHT22;34679;51.436;-2.518;2022-12-29T12:02:02;9.20;99.90
48860;DHT22;34679;51.436;-2.518;2022-12-29T12:04:32;9.20;99.90
48860;DHT22;34679;51.436;-2.518;2022-12-29T12:07:17;9.10;99.90
48860;DHT22;34679;51.436;-2.518;2022-12-29T12:09:44;8.90;99.90
48860;DHT22;34679;51.436;-2.518;2022-12-29T12:12:22;8.80;99.90
48860;DHT22;34679;51.436;-2.518;2022-12-29T12:14:55;8.70;99.90
48860;DHT22;34679;51.436;-2.518;2022-12-29T12:20:18;8.60;99.90
48860;DHT22;34679;51.436;-2.518;2022-12-29T12:25:45;8.70;99.90
48860;DHT22;34679;51.436;-2.518;2022-12-29T12:28:40;8.80;99.90
48860;DHT22;34679;51.436;-2.518;2022-12-29T12:31:27;8.80;99.90
48860;DHT22;34679;51.436;-2.518;2022-12-29T12:34:03;8.80;99.90
48860;DHT22;34679;51.436;-2.518;2022-12-29T12:37:02;8.70;99.90
48860;DHT22;34679;51.436;-2.518;2022-12-29T12:45:36;8.60;99.90
48860;DHT22;34679;51.436;-2.518;2022-12-29T12:48:20;8.60;99.90
48860;DHT22;34679;51.436;-2.518;2022-12-29T12:53:18;8.70;99.90
48860;DHT22;34679;51.436;-2.518;2022-12-29T12:58:49;8.70;99.90
48860;DHT22;34679;51.436;-2.518;2022-12-29T13:01:34;8.60;99.90
48860;DHT22;34679;51.436;-2.518;2022-12-29T13:12:47;8.80;99.90
48860;DHT22;34679;51.436;-2.518;2022-12-29T13:15:44;8.90;99.90
48860;DHT22;34679;51.436;-2.518;2022-12-29T13:24:04;8.60;99.90
48860;DHT22;34679;51.436;-2.518;2022-12-29T13:29:16;8.40;99.90
48860;DHT22;34679;51.436;-2.518;2022-12-29T13:32:09;8.30;99.90
48860;DHT22;34679;51.436;-2.518;2022-12-29T13:37:20;8.20;99.90
48860;DHT22;34679;51.436;-2.518;2022-12-29T13:39:51;8.10;99.90
48860;DHT22;34679;51.436;-2.518;2022-12-29T13:42:18;8.00;99.90
48860;DHT22;34679;51.436;-2.518;2022-12-29T13:44:48;7.90;99.90
48860;DHT22;34679;51.436;-2.518;2022-12-29T13:47:40;7.80;99.90
48860;DHT22;34679;51.436;-2.518;2022-12-29T13:50:14;7.80;99.90
48860;DHT22;34679;51.436;-2.518;2022-12-29T13:53:18;7.90;99.90
48860;DHT22;34679;51.436;-2.518;2022-12-29T13:56:15;8.10;99.90
48860;DHT22;34679;51.436;-2.518;2022-12-29T14:01:59;8.20;99.90
48860;DHT22;34679;51.436;-2.518;2022-12-29T14:04:29;8.20;99.90
48860;DHT22;34679;51.436;-2.518;2022-12-29T14:07:02;8.10;99.90
48860;DHT22;34679;51.436;-2.518;2022-12-29T14:12:38;7.90;99.90
48860;DHT22;34679;51.436;-2.518;2022-12-29T14:17:34;7.70;99.90
48860;DHT22;34679;51.436;-2.518;2022-12-29T14:20:01;7.60;99.90
48860;DHT22;34679;51.436;-2.518;2022-12-29T14:22:28;7.50;99.90
48860;DHT22;34679;51.436;-2.518;2022-12-29T14:24:54;7.50;99.90
48860;DHT22;34679;51.436;-2.518;2022-12-29T14:29:51;7.40;99.90
48860;DHT22;34679;51.436;-2.518;2022-12-29T14:34:56;7.50;99.90
48860;DHT22;34679;51.436;-2.518;2022-12-29T14:37:31;7.60;99.90
48860;DHT22;34679;51.436;-2.518;2022-12-29T14:40:17;7.70;99.90
48860;DHT22;34679;51.436;-2.518;2022-12-29T14:42:47;7.90;99.90
48860;DHT22;34679;51.436;-2.518;2022-12-29T14:47:48;8.10;99.90
48860;DHT22;34679;51.436;-2.518;2022-12-29T14:57:46;8.10;99.90
48860;DHT22;34679;51.436;-2.518;2022-12-29T15:00:24;8.10;99.90
48860;DHT22;34679;51.436;-2.518;2022-12-29T15:03:38;8.10;99.90
48860;DHT22;34679;51.436;-2.518;2022-12-29T15:06:10;8.10;99.90
48860;DHT22;34679;51.436;-2.518;2022-12-29T15:08:42;8.10;99.90
48860;DHT22;34679;51.436;-2.518;2022-12-29T15:11:17;7.90;99.90
48860;DHT22;34679;51.436;-2.518;2022-12-29T15:13:44;7.90;99.90
48860;DHT22;34679;51.436;-2.518;2022-12-29T15:16:34;7.90;99.90
48860;DHT22;34679;51.436;-2.518;2022-12-29T15:19:02;7.80;99.90
48860;DHT22;34679;51.436;-2.518;2022-12-29T15:21:34;7.80;99.90
48860;DHT22;34679;51.436;-2.518;2022-12-29T15:24:01;7.80;99.90
48860;DHT22;34679;51.436;-2.518;2022-12-29T15:26:39;7.80;99.90
48860;DHT22;34679;51.436;-2.518;2022-12-29T15:29:05;7.80;99.90
48860;DHT22;34679;51.436;-2.518;2022-12-29T15:31:31;7.80;99.90
48860;DHT22;34679;51.436;-2.518;2022-12-29T15:34:10;7.80;99.90
48860;DHT22;34679;51.436;-2.518;2022-12-29T15:36:38;7.80;99.90
48860;DHT22;34679;51.436;-2.518;2022-12-29T15:39:26;7.80;99.90
48860;DHT22;34679;51.436;-2.518;2022-12-29T15:42:02;7.90;99.90
48860;DHT22;34679;51.436;-2.518;2022-12-29T15:44:41;7.90;99.90
48860;DHT22;34679;51.436;-2.518;2022-12-29T15:47:17;7.90;99.90
48860;DHT22;34679;51.436;-2.518;2022-12-29T15:49:45;7.90;99.90
48860;DHT22;34679;51.436;-2.518;2022-12-29T15:52:20;7.80;99.90
48860;DHT22;34679;51.436;-2.518;2022-12-29T15:54:47;7.70;99.90
48860;DHT22;34679;51.436;-2.518;2022-12-29T15:57:41;7.80;99.90
48860;DHT22;34679;51.436;-2.518;2022-12-29T16:00:28;7.60;99.90
48860;DHT22;34679;51.436;-2.518;2022-12-29T16:02:55;7.60;99.90
48860;DHT22;34679;51.436;-2.518;2022-12-29T16:05:22;7.50;99.90
48860;DHT22;34679;51.436;-2.518;2022-12-29T16:07:57;7.50;99.90
48860;DHT22;34679;51.436;-2.518;2022-12-29T16:10:37;7.60;99.90
48860;DHT22;34679;51.436;-2.518;2022-12-29T16:13:25;7.50;99.90
48860;DHT22;34679;51.436;-2.518;2022-12-29T16:16:16;7.50;99.90
48860;DHT22;34679;51.436;-2.518;2022-12-29T16:18:43;7.50;99.90
48860;DHT22;34679;51.436;-2.518;2022-12-29T16:21:32;7.50;99.90
48860;DHT22;34679;51.436;-2.518;2022-12-29T16:24:06;7.40;99.90
48860;DHT22;34679;51.436;-2.518;2022-12-29T16:26:33;7.30;99.90
48860;DHT22;34679;51.436;-2.518;2022-12-29T16:29:04;7.20;99.90
48860;DHT22;34679;51.436;-2.518;2022-12-29T16:34:23;7.00;99.90
48860;DHT22;34679;51.436;-2.518;2022-12-29T16:37:27;7.00;99.90
48860;DHT22;34679;51.436;-2.518;2022-12-29T16:39:53;6.90;99.90
48860;DHT22;34679;51.436;-2.518;2022-12-29T16:42:49;6.90;99.90
48860;DHT22;34679;51.436;-2.518;2022-12-29T16:50:27;6.80;99.90
48860;DHT22;34679;51.436;-2.518;2022-12-29T16:52:53;6.80;99.90
48860;DHT22;34679;51.436;-2.518;2022-12-29T16:55:19;6.70;99.90
48860;DHT22;34679;51.436;-2.518;2022-12-29T16:57:47;6.60;99.90
48860;DHT22;34679;51.436;-2.518;2022-12-29T17:00:25;6.60;99.90
48860;DHT22;34679;51.436;-2.518;2022-12-29T17:02:53;6.60;99.90
48860;DHT22;34679;51.436;-2.518;2022-12-29T17:05:20;6.50;99.90
48860;DHT22;34679;51.436;-2.518;2022-12-29T17:07:46;6.50;99.90
48860;DHT22;34679;51.436;-2.518;2022-12-29T17:10:13;6.40;99.90
48860;DHT22;34679;51.436;-2.518;2022-12-29T17:12:44;6.40;99.90
48860;DHT22;34679;51.436;-2.518;2022-12-29T17:17:45;6.40;99.90
48860;DHT22;34679;51.436;-2.518;2022-12-29T17:20:16;6.30;99.90
48860;DHT22;34679;51.436;-2.518;2022-12-29T17:22:42;6.20;99.90
48860;DHT22;34679;51.436;-2.518;2022-12-29T17:25:12;6.20;99.90
48860;DHT22;34679;51.436;-2.518;2022-12-29T17:30:17;6.20;99.90
48860;DHT22;34679;51.436;-2.518;2022-12-29T17:32:48;6.10;99.90
48860;DHT22;34679;51.436;-2.518;2022-12-29T17:35:19;6.10;99.90
48860;DHT22;34679;51.436;-2.518;2022-12-29T17:37:46;6.20;99.90
48860;DHT22;34679;51.436;-2.518;2022-12-29T17:40:20;6.30;99.90
48860;DHT22;34679;51.436;-2.518;2022-12-29T17:42:51;6.30;99.90
48860;DHT22;34679;51.436;-2.518;2022-12-29T17:45:26;6.40;99.90
48860;DHT22;34679;51.436;-2.518;2022-12-29T17:47:52;6.30;99.90
48860;DHT22;34679;51.436;-2.518;2022-12-29T17:50:21;6.40;99.90
48860;DHT22;34679;51.436;-2.518;2022-12-29T17:52:56;6.40;99.90
48860;DHT22;34679;51.436;-2.518;2022-12-29T17:55:23;6.40;99.90
48860;DHT22;34679;51.436;-2.518;2022-12-29T17:57:49;6.40;99.90
48860;DHT22;34679;51.436;-2.518;2022-12-29T18:00:16;6.40;99.90
48860;DHT22;34679;51.436;-2.518;2022-12-29T18:02:43;6.40;99.90
48860;DHT22;34679;51.436;-2.518;2022-12-29T18:05:33;6.40;99.90
48860;DHT22;34679;51.436;-2.518;2022-12-29T18:07:59;6.30;99.90
48860;DHT22;34679;51.436;-2.518;2022-12-29T18:10:27;6.30;99.90
48860;DHT22;34679;51.436;-2.518;2022-12-29T18:12:58;6.30;99.90
48860;DHT22;34679;51.436;-2.518;2022-12-29T18:15:29;6.30;99.90
48860;DHT22;34679;51.436;-2.518;2022-12-29T18:18:10;6.40;99.90
48860;DHT22;34679;51.436;-2.518;2022-12-29T18:20:36;6.40;99.90
48860;DHT22;34679;51.436;-2.518;2022-12-29T18:23:02;6.40;99.90